Time;durP1;ratioP1;P1;durP2;ratioP2;P2;SDS_P1;SDS_P2;PMS_P1;PMS_P2;Temp;Humidity;BMP_temperature;BMP_pressure;BME280_temperature;BME280_humidity;BME280_pressure;Samples;Min_cycle;Max_cycle;Signal;HPM_P1;HPM_P2
2024/03/25 00:00:16;;;;;;;3.47;1.53;;;10.00;61.10;;;;;;5008868;28;20190;-58
2024/03/25 00:02:42;;;;;;;1.97;1.70;;;9.90;62.10;;;;;;5009181;28;20268;-60
2024/03/25 00:05:11;;;;;;;2.70;1.70;;;10.00;61.30;;;;;;5009410;28;20182;-58
2024/03/25 00:07:38;;;;;;;2.30;1.70;;;10.10;60.80;;;;;;5006474;28;20693;-59
2024/03/25 00:10:06;;;;;;;3.30;2.43;;;10.10;60.70;;;;;;5008640;28;20999;-58
2024/03/25 00:12:32;;;;;;;5.13;2.53;;;10.20;60.40;;;;;;5004228;28;20571;-59
2024/03/25 00:14:57;;;;;;;4.57;2.03;;;10.30;60.60;;;;;;5003094;28;20459;-59
2024/03/25 00:17:23;;;;;;;3.23;2.30;;;10.30;60.30;;;;;;5003339;28;20453;-60
2024/03/25 00:19:52;;;;;;;2.50;1.77;;;10.40;60.00;;;;;;5000581;28;20195;-58
2024/03/25 00:22:19;;;;;;;1.60;1.50;;;10.60;59.70;;;;;;5001700;28;20194;-60
2024/03/25 00:24:46;;;;;;;1.53;1.43;;;10.60;59.50;;;;;;5004103;28;20468;-57
2024/03/25 00:27:12;;;;;;;2.03;1.83;;;10.60;59.40;;;;;;5002968;28;20467;-59
2024/03/25 00:29:37;;;;;;;4.70;1.70;;;10.70;59.20;;;;;;5001734;28;20459;-60
2024/03/25 00:32:03;;;;;;;2.10;1.80;;;10.50;59.20;;;;;;5003667;28;20301;-57
2024/03/25 00:34:29;;;;;;;2.80;2.00;;;10.60;59.40;;;;;;5003240;28;20213;-59
2024/03/25 00:36:54;;;;;;;3.30;2.20;;;10.50;59.40;;;;;;4998968;28;20461;-60
2024/03/25 00:39:21;;;;;;;2.30;1.87;;;10.30;59.50;;;;;;5001935;28;20190;-60
2024/03/25 00:41:47;;;;;;;3.37;1.97;;;10.50;59.80;;;;;;5004111;28;20190;-57
2024/03/25 00:44:12;;;;;;;3.83;2.20;;;10.50;59.50;;;;;;5007718;28;21248;-59
2024/03/25 00:46:38;;;;;;;4.10;2.07;;;10.60;59.20;;;;;;5010736;28;20213;-59
2024/03/25 00:49:03;;;;;;;3.80;1.90;;;10.70;59.20;;;;;;5000556;28;20192;-60
2024/03/25 00:51:29;;;;;;;4.00;2.13;;;10.60;59.00;;;;;;5000017;28;20277;-58
2024/03/25 00:53:54;;;;;;;2.50;1.80;;;10.90;58.70;;;;;;5001286;28;20194;-59
2024/03/25 00:56:20;;;;;;;2.40;2.20;;;11.00;58.40;;;;;;5010950;28;20712;-59
2024/03/25 00:58:46;;;;;;;2.37;2.07;;;10.80;58.10;;;;;;5012188;28;20182;-60
2024/03/25 01:01:11;;;;;;;4.17;2.43;;;10.70;58.40;;;;;;5016877;28;20181;-57
2024/03/25 01:03:37;;;;;;;2.20;1.73;;;10.80;58.30;;;;;;5012334;28;20198;-60
2024/03/25 01:06:04;;;;;;;5.70;2.03;;;10.90;58.10;;;;;;5005099;28;20210;-58
2024/03/25 01:08:30;;;;;;;7.23;2.20;;;10.80;58.10;;;;;;5000674;28;20193;-57
2024/03/25 01:10:55;;;;;;;3.57;2.70;;;10.80;58.10;;;;;;5006338;28;21060;-59
2024/03/25 01:13:21;;;;;;;3.93;2.40;;;10.60;58.40;;;;;;5014631;28;20213;-60
2024/03/25 01:15:47;;;;;;;4.40;2.50;;;10.80;58.10;;;;;;5005851;28;20194;-59
2024/03/25 01:18:13;;;;;;;3.40;2.10;;;10.60;58.30;;;;;;5012541;28;20197;-57
2024/03/25 01:20:38;;;;;;;3.07;2.27;;;10.60;58.60;;;;;;5007744;28;20182;-59
2024/03/25 01:23:04;;;;;;;4.13;2.20;;;10.80;58.20;;;;;;5005213;28;20433;-57
2024/03/25 01:25:30;;;;;;;3.40;2.43;;;11.10;57.80;;;;;;5006933;28;20217;-56
2024/03/25 01:27:56;;;;;;;2.70;2.30;;;11.20;57.50;;;;;;5005819;28;20455;-56
2024/03/25 01:30:22;;;;;;;2.17;1.77;;;11.30;57.30;;;;;;5004489;28;20455;-58
2024/03/25 01:32:48;;;;;;;3.50;2.20;;;11.20;57.40;;;;;;5005479;28;20502;-55
2024/03/25 01:35:15;;;;;;;2.70;1.93;;;11.30;57.30;;;;;;5003955;28;20189;-59
2024/03/25 01:37:41;;;;;;;3.23;2.10;;;11.40;57.30;;;;;;5004252;28;20870;-59
2024/03/25 01:40:07;;;;;;;4.03;2.47;;;11.40;57.20;;;;;;5008201;28;20436;-58
2024/03/25 01:42:33;;;;;;;4.03;2.87;;;11.40;57.10;;;;;;5012472;28;20437;-59
2024/03/25 01:44:58;;;;;;;4.10;2.60;;;11.50;56.90;;;;;;5010944;28;20505;-59
2024/03/25 01:47:24;;;;;;;3.90;2.10;;;11.50;56.80;;;;;;5012068;28;20697;-57
2024/03/25 01:49:53;;;;;;;4.83;2.20;;;11.50;56.70;;;;;;5010596;28;20188;-56
2024/03/25 01:52:20;;;;;;;2.10;1.90;;;11.60;56.70;;;;;;5012309;28;20591;-60
2024/03/25 01:54:46;;;;;;;2.30;2.10;;;11.60;56.50;;;;;;5011798;28;20413;-59
2024/03/25 01:57:12;;;;;;;2.90;1.83;;;11.60;56.60;;;;;;5011896;28;20436;-58
2024/03/25 01:59:39;;;;;;;3.20;1.90;;;11.50;56.40;;;;;;5010974;28;20190;-59
2024/03/25 02:02:05;;;;;;;5.33;1.97;;;11.60;56.40;;;;;;5011381;28;20420;-58
2024/03/25 02:04:31;;;;;;;4.40;2.47;;;11.60;56.30;;;;;;5011221;28;21002;-60
2024/03/25 02:06:58;;;;;;;3.43;2.13;;;11.70;56.20;;;;;;5011264;28;20828;-59
2024/03/25 02:09:24;;;;;;;4.40;2.10;;;11.70;56.30;;;;;;5010353;28;20844;-59
2024/03/25 02:11:51;;;;;;;3.47;2.23;;;11.70;56.50;;;;;;5005158;28;20615;-60
2024/03/25 02:14:17;;;;;;;4.80;2.70;;;11.70;56.50;;;;;;5000390;28;20440;-58
2024/03/25 02:16:42;;;;;;;3.53;2.43;;;11.60;56.40;;;;;;5008213;28;20468;-59
2024/03/25 02:19:11;;;;;;;3.27;2.80;;;11.40;56.50;;;;;;5003377;28;20342;-59
2024/03/25 02:21:36;;;;;;;3.33;2.30;;;11.40;56.50;;;;;;5004389;28;20549;-54
2024/03/25 02:24:04;;;;;;;3.40;2.30;;;11.40;56.50;;;;;;5007095;28;20500;-59
2024/03/25 02:26:30;;;;;;;6.80;2.30;;;11.10;56.50;;;;;;4999095;28;20686;-59
2024/03/25 02:28:55;;;;;;;3.50;2.27;;;11.00;57.10;;;;;;5001678;28;20555;-58
2024/03/25 02:31:21;;;;;;;4.20;2.70;;;11.00;57.40;;;;;;5004892;28;20575;-59
2024/03/25 02:33:47;;;;;;;4.67;2.30;;;11.10;57.10;;;;;;5005108;28;20209;-58
2024/03/25 02:36:12;;;;;;;2.67;2.40;;;11.00;57.30;;;;;;5001818;28;20206;-57
2024/03/25 02:38:38;;;;;;;2.57;2.07;;;11.10;57.10;;;;;;5001688;28;20210;-59
2024/03/25 02:41:04;;;;;;;4.37;2.13;;;11.20;56.90;;;;;;5003403;28;20187;-57
2024/03/25 02:43:30;;;;;;;2.20;1.97;;;11.10;56.80;;;;;;5001811;28;20293;-60
2024/03/25 02:45:55;;;;;;;4.90;2.33;;;11.10;57.00;;;;;;5009433;28;20508;-57
2024/03/25 02:48:21;;;;;;;4.80;1.87;;;11.20;56.90;;;;;;5002661;28;20221;-57
2024/03/25 02:50:47;;;;;;;3.43;2.63;;;11.10;57.00;;;;;;5009448;28;20186;-55
2024/03/25 02:53:12;;;;;;;6.30;2.40;;;11.20;56.90;;;;;;5005345;28;20182;-59
2024/03/25 02:55:38;;;;;;;3.53;2.10;;;11.30;56.80;;;;;;5008614;28;20193;-59
2024/03/25 02:58:03;;;;;;;7.03;2.63;;;11.40;56.60;;;;;;5010528;28;20308;-59
2024/03/25 03:00:29;;;;;;;6.23;2.40;;;11.50;56.50;;;;;;5003527;28;20790;-56
2024/03/25 03:02:54;;;;;;;3.30;2.20;;;11.60;56.30;;;;;;5004438;28;20911;-58
2024/03/25 03:05:20;;;;;;;4.60;2.20;;;11.60;56.20;;;;;;5002024;28;20545;-58
2024/03/25 03:07:45;;;;;;;3.43;2.20;;;11.60;56.40;;;;;;5003314;28;21589;-58
2024/03/25 03:10:11;;;;;;;5.27;2.40;;;11.40;56.50;;;;;;5003934;28;20194;-58
2024/03/25 03:12:38;;;;;;;5.00;2.67;;;11.10;56.80;;;;;;5013668;28;20705;-58
2024/03/25 03:15:04;;;;;;;5.90;2.47;;;11.10;56.80;;;;;;5002643;28;20507;-58
2024/03/25 03:17:29;;;;;;;3.40;2.40;;;11.20;56.90;;;;;;5000216;28;20213;-59
2024/03/25 03:19:55;;;;;;;4.00;2.30;;;11.30;56.70;;;;;;5000725;28;20957;-58
2024/03/25 03:22:20;;;;;;;3.00;2.10;;;11.40;56.60;;;;;;5003190;28;20797;-59
2024/03/25 03:24:46;;;;;;;7.23;2.67;;;11.50;56.60;;;;;;5003717;28;20190;-60
2024/03/25 03:27:12;;;;;;;3.97;2.80;;;11.50;56.40;;;;;;5003636;28;20288;-58
2024/03/25 03:29:38;;;;;;;3.10;2.20;;;11.50;56.10;;;;;;4999819;28;20199;-57
2024/03/25 03:32:04;;;;;;;3.53;2.40;;;11.60;56.00;;;;;;5000923;28;20472;-58
2024/03/25 03:34:30;;;;;;;4.67;2.37;;;11.60;55.90;;;;;;5002528;28;20464;-59
2024/03/25 03:36:55;;;;;;;3.00;2.17;;;11.70;55.80;;;;;;5003963;28;20761;-56
2024/03/25 03:39:21;;;;;;;3.20;2.77;;;11.60;55.80;;;;;;5006502;28;20332;-58
2024/03/25 03:41:46;;;;;;;3.57;2.50;;;11.60;56.00;;;;;;5013401;28;20197;-58
2024/03/25 03:44:14;;;;;;;4.30;2.50;;;11.60;56.10;;;;;;5015727;28;20185;-60
2024/03/25 03:46:40;;;;;;;4.40;2.00;;;11.60;56.20;;;;;;5010204;28;20233;-59
2024/03/25 03:49:05;;;;;;;3.00;2.03;;;11.70;56.30;;;;;;5014420;28;20804;-58
2024/03/25 03:51:31;;;;;;;5.83;2.23;;;11.70;56.60;;;;;;5011938;28;20213;-59
2024/03/25 03:53:57;;;;;;;3.63;2.57;;;11.60;56.50;;;;;;5008277;28;20205;-59
2024/03/25 03:56:22;;;;;;;6.47;2.60;;;11.60;57.10;;;;;;5009421;28;20212;-59
2024/03/25 03:58:48;;;;;;;2.20;1.70;;;11.60;56.50;;;;;;5015705;28;20722;-59
2024/03/25 04:01:18;;;;;;;4.43;2.60;;;11.60;56.70;;;;;;5011244;28;20196;-58
2024/03/25 04:03:44;;;;;;;3.13;2.57;;;11.60;56.80;;;;;;5009895;28;20194;-59
2024/03/25 04:06:13;;;;;;;4.50;2.43;;;11.50;56.70;;;;;;5012288;28;20504;-58
2024/03/25 04:08:40;;;;;;;2.50;2.20;;;11.50;56.70;;;;;;4991889;28;20421;-59
2024/03/25 04:11:06;;;;;;;4.83;3.87;;;11.40;56.50;;;;;;5009446;28;20469;-59
2024/03/25 04:13:33;;;;;;;5.93;2.90;;;11.20;56.20;;;;;;5011586;28;20429;-60
2024/03/25 04:16:04;;;;;;;3.07;2.70;;;11.00;56.90;;;;;;5008931;28;20433;-59
2024/03/25 04:18:31;;;;;;;4.53;2.47;;;11.10;56.70;;;;;;5007471;28;20437;-59
2024/03/25 04:20:57;;;;;;;5.30;2.30;;;10.90;56.70;;;;;;5009339;28;20507;-59
2024/03/25 04:23:22;;;;;;;4.30;2.43;;;10.90;57.00;;;;;;5008544;28;20447;-60
2024/03/25 04:25:49;;;;;;;2.93;2.63;;;10.80;57.30;;;;;;5004312;28;20449;-57
2024/03/25 04:28:15;;;;;;;2.73;2.53;;;10.70;57.30;;;;;;5006757;28;20298;-60
2024/03/25 04:30:40;;;;;;;5.37;2.50;;;10.80;57.30;;;;;;5014153;28;20888;-59
2024/03/25 04:33:07;;;;;;;3.87;2.50;;;10.90;57.00;;;;;;5005800;28;20206;-54
2024/03/25 04:35:32;;;;;;;4.77;2.50;;;10.80;57.00;;;;;;5004093;28;20182;-56
2024/03/25 04:37:58;;;;;;;2.40;2.20;;;10.90;56.90;;;;;;4999905;28;20486;-59
2024/03/25 04:40:23;;;;;;;5.37;2.80;;;11.10;56.70;;;;;;5000354;28;20190;-58
2024/03/25 04:42:49;;;;;;;3.30;2.90;;;11.20;56.60;;;;;;4999672;28;20186;-59
2024/03/25 04:45:15;;;;;;;3.23;2.90;;;11.20;56.60;;;;;;5000280;28;20193;-57
2024/03/25 04:47:40;;;;;;;6.43;3.00;;;11.20;56.30;;;;;;5002507;28;20321;-57
2024/03/25 04:50:06;;;;;;;3.83;2.50;;;11.20;56.20;;;;;;4997635;28;20532;-57
2024/03/25 04:52:32;;;;;;;3.30;2.93;;;11.30;56.20;;;;;;5001224;28;20214;-59
2024/03/25 04:54:58;;;;;;;2.93;2.73;;;11.30;56.20;;;;;;5002502;28;20448;-59
2024/03/25 04:57:24;;;;;;;5.70;2.47;;;11.30;56.20;;;;;;5012103;28;20208;-58
2024/03/25 04:59:49;;;;;;;4.43;2.90;;;11.20;56.30;;;;;;5005585;28;20433;-60
2024/03/25 05:02:15;;;;;;;5.37;2.70;;;11.30;56.60;;;;;;5002150;28;20204;-56
2024/03/25 05:04:40;;;;;;;3.37;2.73;;;11.30;56.50;;;;;;5001176;28;20214;-56
2024/03/25 05:07:06;;;;;;;5.50;2.90;;;11.20;56.40;;;;;;5001170;28;20210;-57
2024/03/25 05:09:32;;;;;;;7.10;2.93;;;11.10;56.60;;;;;;5000182;28;20213;-58
2024/03/25 05:11:57;;;;;;;8.30;3.30;;;11.20;56.70;;;;;;5000662;28;20236;-58
2024/03/25 05:14:23;;;;;;;4.57;2.80;;;11.20;56.70;;;;;;5000538;28;20310;-57
2024/03/25 05:16:50;;;;;;;3.40;2.60;;;11.10;56.50;;;;;;5000942;28;20554;-55
2024/03/25 05:19:15;;;;;;;4.43;2.90;;;11.00;56.80;;;;;;5000348;28;20178;-60
2024/03/25 05:21:41;;;;;;;3.90;2.67;;;11.00;56.90;;;;;;5000598;28;20820;-58
2024/03/25 05:24:07;;;;;;;3.30;3.00;;;11.00;57.00;;;;;;5000120;28;20193;-56
2024/03/25 05:26:32;;;;;;;3.47;2.93;;;11.00;56.80;;;;;;5000421;28;20206;-60
2024/03/25 05:28:58;;;;;;;5.77;2.83;;;11.00;57.00;;;;;;4999798;28;20999;-60
2024/03/25 05:31:24;;;;;;;4.13;2.70;;;11.00;56.90;;;;;;5000203;28;20225;-58
2024/03/25 05:33:50;;;;;;;4.10;2.83;;;10.90;57.10;;;;;;4998364;28;20232;-59
2024/03/25 05:36:16;;;;;;;4.57;3.50;;;10.90;57.40;;;;;;5000007;28;20249;-60
2024/03/25 05:38:42;;;;;;;5.67;3.20;;;10.90;57.40;;;;;;4999427;28;20939;-59
2024/03/25 05:41:08;;;;;;;4.43;3.30;;;10.90;57.50;;;;;;5010165;28;20741;-60
2024/03/25 05:43:34;;;;;;;5.27;3.40;;;10.80;57.60;;;;;;5013547;28;20448;-59
2024/03/25 05:46:00;;;;;;;10.30;3.37;;;10.80;57.80;;;;;;5016246;28;20924;-59
2024/03/25 05:48:25;;;;;;;5.03;2.90;;;10.80;58.00;;;;;;5015730;28;20186;-57
2024/03/25 05:51:07;;;;;;;3.87;2.90;;;10.80;57.80;;;;;;5015850;28;20616;-60
2024/03/25 05:53:33;;;;;;;2.97;2.43;;;10.80;57.90;;;;;;5016013;28;20185;-59
2024/03/25 05:56:00;;;;;;;4.07;2.70;;;10.80;58.00;;;;;;5013887;28;20425;-59
2024/03/25 05:58:26;;;;;;;5.33;2.87;;;10.90;57.90;;;;;;5015326;28;20425;-59
2024/03/25 06:00:55;;;;;;;4.83;2.93;;;10.70;57.90;;;;;;5013344;28;20432;-60
2024/03/25 06:03:21;;;;;;;5.00;2.50;;;10.50;58.40;;;;;;5013505;28;20706;-58
2024/03/25 06:05:47;;;;;;;6.13;2.90;;;10.70;58.60;;;;;;5016109;28;20470;-60
2024/03/25 06:08:20;;;;;;;3.27;2.47;;;10.70;58.40;;;;;;5010146;28;20444;-56
2024/03/25 06:10:46;;;;;;;3.80;2.75;;;10.70;58.40;;;;;;5010824;28;20488;-57
2024/03/25 06:13:11;;;;;;;3.97;2.80;;;10.80;58.30;;;;;;5011177;28;20945;-56
2024/03/25 06:15:37;;;;;;;4.57;2.67;;;10.80;58.20;;;;;;5013971;28;21245;-58
2024/03/25 06:18:03;;;;;;;4.43;2.40;;;10.90;57.90;;;;;;5004434;28;20297;-59
2024/03/25 06:20:28;;;;;;;4.00;2.80;;;11.00;57.80;;;;;;5004033;28;20186;-59
2024/03/25 06:22:54;;;;;;;5.87;3.10;;;11.20;59.00;;;;;;5002610;28;20202;-58
2024/03/25 06:25:19;;;;;;;4.23;2.70;;;11.50;58.60;;;;;;5003917;28;20658;-56
2024/03/25 06:27:45;;;;;;;4.90;2.97;;;11.80;58.90;;;;;;5003910;28;20208;-59
2024/03/25 06:35:43;;;;;;;3.30;2.53;;;12.20;57.10;;;;;;5004338;28;20452;-59
2024/03/25 06:38:08;;;;;;;3.27;2.63;;;12.40;56.70;;;;;;5003310;28;20465;-56
2024/03/25 06:40:34;;;;;;;3.87;2.73;;;12.40;56.00;;;;;;5001809;28;20491;-57
2024/03/25 06:43:00;;;;;;;4.73;3.20;;;12.30;55.20;;;;;;5002829;28;20763;-56
2024/03/25 06:45:25;;;;;;;7.00;3.23;;;12.30;56.10;;;;;;5006419;28;20193;-60
2024/03/25 06:47:51;;;;;;;4.00;2.53;;;12.40;55.70;;;;;;5011664;28;20226;-57
2024/03/25 06:50:16;;;;;;;3.90;2.90;;;12.50;55.80;;;;;;5012889;28;20684;-59
2024/03/25 06:52:42;;;;;;;4.90;2.60;;;12.70;55.00;;;;;;5015839;28;20221;-59
2024/03/25 06:55:08;;;;;;;2.53;2.33;;;12.70;54.90;;;;;;5012999;28;20198;-59
2024/03/25 06:57:34;;;;;;;4.73;2.70;;;12.90;54.80;;;;;;5009841;28;20236;-59
2024/03/25 07:00:00;;;;;;;7.87;2.33;;;13.20;54.10;;;;;;5016443;28;20451;-59
2024/03/25 07:02:25;;;;;;;4.10;2.60;;;13.50;53.30;;;;;;5010853;28;21055;-59
2024/03/25 07:04:51;;;;;;;2.57;2.20;;;13.70;52.80;;;;;;5011133;28;20654;-60
2024/03/25 07:07:16;;;;;;;4.00;2.90;;;13.80;52.10;;;;;;5015222;28;20640;-58
2024/03/25 07:09:43;;;;;;;3.47;2.70;;;14.00;52.40;;;;;;5009787;28;20189;-59
2024/03/25 07:12:08;;;;;;;3.00;2.50;;;14.30;51.70;;;;;;5019730;28;20221;-60
2024/03/25 07:14:34;;;;;;;3.83;2.40;;;14.50;50.90;;;;;;5009339;28;20456;-60
2024/03/25 07:16:59;;;;;;;3.70;2.30;;;14.70;50.40;;;;;;5018097;28;20205;-60
2024/03/25 07:19:25;;;;;;;4.30;2.60;;;14.90;50.10;;;;;;5015379;28;20186;-60
2024/03/25 07:21:50;;;;;;;5.00;3.17;;;14.90;48.90;;;;;;5017071;28;20186;-61
2024/03/25 07:24:16;;;;;;;4.37;2.40;;;15.00;49.10;;;;;;4998172;28;20201;-60
2024/03/25 07:26:42;;;;;;;7.00;3.37;;;15.20;49.00;;;;;;5014565;28;20268;-61
2024/03/25 07:29:07;;;;;;;3.43;2.90;;;15.50;49.00;;;;;;5007424;28;20719;-58
2024/03/25 07:31:33;;;;;;;7.63;3.10;;;15.60;48.60;;;;;;5008276;28;20249;-60
2024/03/25 07:33:58;;;;;;;3.60;3.30;;;15.70;47.90;;;;;;5008078;28;20544;-59
2024/03/25 07:36:24;;;;;;;5.43;3.70;;;15.80;47.70;;;;;;5014074;28;20209;-59
2024/03/25 07:38:50;;;;;;;5.00;3.10;;;15.60;47.30;;;;;;5008336;28;20228;-60
2024/03/25 07:41:15;;;;;;;5.40;3.47;;;15.50;47.60;;;;;;5004046;28;20190;-59
2024/03/25 07:43:41;;;;;;;4.67;3.50;;;15.50;47.30;;;;;;5005770;28;20201;-58
2024/03/25 07:46:06;;;;;;;3.37;2.90;;;15.40;47.40;;;;;;5020591;28;20637;-57
2024/03/25 07:48:32;;;;;;;4.50;3.17;;;15.40;47.60;;;;;;5017798;28;20671;-58
2024/03/25 07:50:57;;;;;;;4.33;2.93;;;15.50;47.60;;;;;;5014483;28;20675;-60
2024/03/25 07:53:23;;;;;;;4.63;3.30;;;15.80;47.80;;;;;;5017265;28;20316;-59
2024/03/25 07:55:49;;;;;;;4.53;3.50;;;15.60;47.40;;;;;;5018665;28;20194;-60
2024/03/25 07:58:16;;;;;;;6.20;3.27;;;15.50;47.60;;;;;;5018146;28;20708;-60
2024/03/25 08:00:41;;;;;;;5.70;3.00;;;15.60;47.00;;;;;;5016218;28;20445;-59
2024/03/25 08:03:08;;;;;;;5.77;4.20;;;15.70;46.60;;;;;;5021514;28;20181;-55
2024/03/25 08:05:33;;;;;;;5.23;3.10;;;15.90;46.90;;;;;;5009947;28;20194;-59
2024/03/25 08:07:59;;;;;;;4.07;3.00;;;16.00;46.40;;;;;;5019597;28;20808;-60
2024/03/25 08:10:24;;;;;;;3.97;3.00;;;16.20;46.10;;;;;;5014531;28;20361;-60
2024/03/25 08:12:50;;;;;;;4.93;2.87;;;16.20;45.60;;;;;;5017060;28;20209;-60
2024/03/25 08:15:15;;;;;;;3.30;2.97;;;16.30;44.90;;;;;;5020313;28;20177;-59
2024/03/25 08:17:41;;;;;;;9.00;3.80;;;16.50;45.10;;;;;;5014782;28;20209;-59
2024/03/25 08:20:08;;;;;;;5.80;2.87;;;16.50;45.30;;;;;;5017559;28;20231;-60
2024/03/25 08:22:34;;;;;;;3.47;2.40;;;16.60;44.90;;;;;;5014436;28;20186;-59
2024/03/25 08:24:59;;;;;;;5.00;2.40;;;16.50;43.40;;;;;;5015578;28;20448;-56
2024/03/25 08:27:25;;;;;;;2.23;1.93;;;16.30;42.50;;;;;;5016856;28;20648;-60
2024/03/25 08:29:53;;;;;;;4.07;2.13;;;16.40;42.80;;;;;;5017056;28;20216;-60
2024/03/25 08:32:19;;;;;;;4.07;2.50;;;16.30;42.30;;;;;;5012034;28;20589;-61
2024/03/25 08:34:45;;;;;;;3.37;1.80;;;16.40;43.50;;;;;;5015238;28;20496;-61
2024/03/25 08:37:10;;;;;;;4.13;2.57;;;16.60;43.30;;;;;;5017900;28;20201;-58
2024/03/25 08:39:36;;;;;;;2.40;2.20;;;16.50;41.90;;;;;;5015040;28;20520;-58
2024/03/25 08:42:02;;;;;;;2.60;2.00;;;16.40;41.90;;;;;;5020242;28;20178;-59
2024/03/25 08:44:28;;;;;;;3.40;2.40;;;16.50;42.60;;;;;;5013779;28;20754;-58
2024/03/25 08:46:53;;;;;;;3.20;2.57;;;16.50;42.40;;;;;;5012776;28;20461;-59
2024/03/25 08:49:19;;;;;;;5.77;2.30;;;16.40;41.90;;;;;;5008423;28;20583;-60
2024/03/25 08:51:44;;;;;;;7.37;2.20;;;16.40;42.10;;;;;;5006606;28;20602;-60
2024/03/25 08:54:10;;;;;;;2.50;2.10;;;16.40;42.00;;;;;;5007744;28;20178;-60
2024/03/25 08:56:35;;;;;;;2.90;1.67;;;16.50;39.70;;;;;;5006726;28;20201;-57
2024/03/25 08:59:01;;;;;;;2.57;1.97;;;16.50;39.10;;;;;;5003244;28;20632;-59
2024/03/25 09:01:27;;;;;;;5.50;2.80;;;16.50;39.90;;;;;;5007186;28;20746;-60
2024/03/25 09:03:52;;;;;;;3.10;2.57;;;16.30;40.50;;;;;;5007379;28;20562;-59
2024/03/25 09:06:18;;;;;;;4.07;2.80;;;16.50;41.20;;;;;;5005067;28;20213;-58
2024/03/25 09:11:44;;;;;;;4.67;2.43;;;16.60;41.40;;;;;;4981328;28;20595;-59
2024/03/25 09:14:12;;;;;;;4.07;2.17;;;16.50;38.70;;;;;;5008697;28;20431;-57
2024/03/25 09:16:37;;;;;;;2.53;1.87;;;16.50;39.70;;;;;;5009462;28;20190;-59
2024/03/25 09:19:03;;;;;;;6.53;1.87;;;16.60;40.80;;;;;;5011413;28;20432;-59
2024/03/25 09:21:29;;;;;;;4.90;2.40;;;16.70;40.20;;;;;;5019043;28;20692;-60
2024/03/25 09:23:57;;;;;;;2.60;1.90;;;16.90;38.90;;;;;;5022095;28;20186;-59
2024/03/25 09:26:23;;;;;;;6.10;2.13;;;17.00;39.00;;;;;;5020374;28;20501;-59
2024/03/25 09:28:49;;;;;;;4.07;1.80;;;17.10;39.10;;;;;;5017860;28;20511;-59
2024/03/25 09:31:14;;;;;;;2.07;1.83;;;17.20;39.80;;;;;;5012009;28;20629;-59
2024/03/25 09:33:40;;;;;;;3.27;1.73;;;17.40;38.60;;;;;;5017534;28;20183;-58
2024/03/25 09:36:06;;;;;;;3.70;2.07;;;17.60;38.40;;;;;;5021766;28;20676;-59
2024/03/25 09:38:31;;;;;;;2.00;1.50;;;17.70;38.30;;;;;;5018085;28;20908;-59
2024/03/25 09:40:57;;;;;;;1.77;1.50;;;17.80;38.40;;;;;;5013913;28;20186;-58
2024/03/25 09:43:53;;;;;;;2.70;2.00;;;17.90;38.70;;;;;;5010857;28;20205;-59
2024/03/25 09:46:20;;;;;;;2.20;1.70;;;18.30;38.10;;;;;;5014620;28;20816;-59
2024/03/25 09:48:46;;;;;;;4.50;2.00;;;18.50;36.90;;;;;;5019430;28;20508;-59
2024/03/25 09:51:12;;;;;;;1.90;1.70;;;18.50;36.00;;;;;;5007709;28;20896;-57
2024/03/25 09:53:37;;;;;;;6.47;2.00;;;18.30;35.60;;;;;;5007025;28;20186;-58
2024/03/25 09:56:03;;;;;;;3.50;2.00;;;18.40;36.10;;;;;;5013891;28;20204;-59
2024/03/25 09:58:31;;;;;;;3.80;2.20;;;18.40;36.10;;;;;;5010171;28;20898;-59
2024/03/25 10:00:58;;;;;;;4.37;2.20;;;18.40;35.60;;;;;;5014125;28;20444;-59
2024/03/25 10:03:23;;;;;;;2.50;1.73;;;18.20;35.80;;;;;;5011218;28;20437;-59
2024/03/25 10:05:50;;;;;;;2.90;2.03;;;18.30;35.80;;;;;;5018457;28;20435;-59
2024/03/25 10:08:20;;;;;;;3.67;1.90;;;18.50;36.00;;;;;;5020792;28;20206;-58
2024/03/25 10:10:46;;;;;;;2.13;1.93;;;18.70;37.00;;;;;;5013772;28;20525;-57
2024/03/25 10:13:11;;;;;;;3.60;2.00;;;18.90;36.20;;;;;;5011393;28;20559;-58
2024/03/25 10:15:37;;;;;;;3.57;2.03;;;19.00;35.80;;;;;;5007690;28;20182;-57
2024/03/25 10:18:03;;;;;;;2.80;2.10;;;19.10;35.50;;;;;;5006807;28;20208;-60
2024/03/25 10:20:28;;;;;;;2.20;1.87;;;19.10;36.10;;;;;;5005102;28;20272;-60
2024/03/25 10:22:54;;;;;;;3.10;1.90;;;19.30;36.20;;;;;;5008225;28;20183;-59
2024/03/25 10:25:23;;;;;;;3.10;1.70;;;19.40;34.60;;;;;;5006891;28;20233;-59
2024/03/25 10:27:58;;;;;;;2.47;2.10;;;19.50;35.60;;;;;;5016735;28;20214;-59
2024/03/25 10:30:24;;;;;;;5.03;2.43;;;19.80;36.60;;;;;;5006528;28;20435;-59
2024/03/25 10:33:00;;;;;;;3.27;2.00;;;19.90;34.50;;;;;;5005947;28;20499;-59
2024/03/25 10:35:31;;;;;;;7.30;1.70;;;19.80;33.60;;;;;;5006669;28;20524;-57
2024/03/25 10:38:00;;;;;;;2.83;1.67;;;19.70;34.20;;;;;;5003691;28;20480;-60
2024/03/25 10:40:29;;;;;;;4.33;1.97;;;19.60;33.90;;;;;;5005794;28;20455;-60
2024/03/25 10:43:06;;;;;;;4.53;1.87;;;19.90;35.20;;;;;;5007778;28;20901;-60
2024/03/25 10:45:34;;;;;;;2.20;1.60;;;20.40;35.90;;;;;;5007388;28;20516;-60
2024/03/25 10:48:08;;;;;;;3.40;1.60;;;20.60;32.30;;;;;;5007249;28;20480;-57
2024/03/25 10:50:36;;;;;;;3.27;1.93;;;20.80;33.30;;;;;;5003159;28;20956;-59
2024/03/25 10:53:04;;;;;;;2.97;1.63;;;20.90;32.60;;;;;;5011776;28;20943;-59
2024/03/25 10:55:33;;;;;;;3.93;2.00;;;20.90;30.90;;;;;;5004338;28;20536;-59
2024/03/25 10:58:00;;;;;;;2.70;2.00;;;21.10;32.70;;;;;;5005369;28;20457;-60
2024/03/25 11:00:26;;;;;;;3.57;1.40;;;21.10;32.80;;;;;;4998883;28;20452;-59
2024/03/25 11:02:52;;;;;;;1.90;1.47;;;21.10;32.10;;;;;;5005609;28;20453;-58
2024/03/25 11:05:18;;;;;;;3.50;1.80;;;21.20;31.30;;;;;;5007428;28;20189;-60
2024/03/25 11:07:45;;;;;;;5.40;2.37;;;21.20;30.00;;;;;;5010839;28;20546;-60
2024/03/25 11:10:11;;;;;;;4.30;1.93;;;21.10;29.80;;;;;;5003401;28;20461;-59
2024/03/25 11:12:40;;;;;;;2.73;1.93;;;21.00;29.90;;;;;;5004042;28;20541;-59
2024/03/25 11:15:07;;;;;;;2.47;1.87;;;21.00;30.40;;;;;;5011841;28;20425;-60
2024/03/25 11:17:33;;;;;;;1.83;1.73;;;20.80;32.30;;;;;;5008417;28;20617;-58
2024/03/25 11:20:14;;;;;;;2.80;1.97;;;20.80;33.10;;;;;;5006204;28;20436;-59
2024/03/25 11:22:52;;;;;;;2.33;1.53;;;20.90;31.60;;;;;;5006744;28;20429;-58
2024/03/25 11:25:20;;;;;;;3.53;2.20;;;21.00;32.50;;;;;;5005643;28;20452;-58
2024/03/25 11:27:46;;;;;;;3.40;2.50;;;21.00;30.00;;;;;;5007470;28;20457;-58
2024/03/25 11:30:16;;;;;;;3.33;2.00;;;21.00;30.10;;;;;;5003685;28;20883;-58
2024/03/25 11:32:52;;;;;;;3.57;1.87;;;21.10;29.80;;;;;;5007338;28;20476;-60
2024/03/25 11:35:18;;;;;;;2.60;2.37;;;21.00;30.60;;;;;;5001076;28;20520;-61
2024/03/25 11:37:44;;;;;;;3.77;2.30;;;21.10;29.80;;;;;;5012109;28;20456;-60
2024/03/25 11:40:12;;;;;;;4.13;2.20;;;21.00;29.80;;;;;;5003533;28;20453;-58
2024/03/25 11:42:39;;;;;;;2.77;1.80;;;21.00;31.90;;;;;;5009747;28;20232;-57
2024/03/25 11:45:07;;;;;;;3.37;2.07;;;21.10;31.50;;;;;;5006690;28;20479;-59
2024/03/25 11:47:33;;;;;;;7.40;1.80;;;21.40;31.60;;;;;;5009992;28;20456;-59
2024/03/25 11:49:59;;;;;;;3.67;1.67;;;21.60;32.00;;;;;;5011169;28;20490;-60
2024/03/25 11:52:30;;;;;;;3.23;1.83;;;22.00;31.90;;;;;;5008148;28;20287;-59
2024/03/25 11:54:56;;;;;;;2.43;2.17;;;22.30;30.70;;;;;;5008483;28;20178;-59
2024/03/25 11:57:22;;;;;;;3.33;2.03;;;21.90;29.50;;;;;;5011340;28;20533;-60
2024/03/25 11:59:49;;;;;;;2.00;1.57;;;22.00;30.60;;;;;;5007580;28;20209;-59
2024/03/25 12:02:16;;;;;;;6.97;1.80;;;22.00;31.00;;;;;;5006626;28;20445;-58
2024/03/25 12:04:45;;;;;;;3.23;1.57;;;22.30;30.60;;;;;;5009693;28;20957;-60
2024/03/25 12:07:14;;;;;;;1.70;1.50;;;22.40;30.10;;;;;;5011277;28;20980;-59
2024/03/25 12:12:26;;;;;;;3.03;1.97;;;22.60;29.80;;;;;;5009880;28;20490;-59
2024/03/25 12:14:52;;;;;;;4.07;1.67;;;22.80;29.30;;;;;;5009339;28;20807;-59
2024/03/25 12:17:18;;;;;;;2.80;1.70;;;23.10;29.40;;;;;;5008119;28;20464;-60
2024/03/25 12:19:44;;;;;;;1.60;1.37;;;23.40;29.30;;;;;;5012609;28;20951;-59
2024/03/25 12:22:10;;;;;;;2.70;1.50;;;23.40;30.10;;;;;;5007664;28;20198;-59
2024/03/25 12:24:36;;;;;;;2.53;1.50;;;23.40;28.60;;;;;;5007065;28;20454;-59
2024/03/25 12:27:03;;;;;;;2.10;1.80;;;23.40;29.80;;;;;;5007681;28;20229;-59
2024/03/25 12:29:28;;;;;;;3.73;1.83;;;23.60;29.50;;;;;;5006707;28;20429;-60
2024/03/25 12:31:55;;;;;;;2.50;1.73;;;23.80;29.60;;;;;;5007603;28;20476;-59
2024/03/25 12:34:21;;;;;;;3.40;1.90;;;24.00;28.80;;;;;;5005486;28;20193;-61
2024/03/25 12:36:51;;;;;;;1.40;1.30;;;24.10;28.40;;;;;;5006494;28;20472;-58
2024/03/25 12:39:20;;;;;;;2.70;1.50;;;24.10;29.00;;;;;;5006091;28;20446;-59
2024/03/25 12:41:45;;;;;;;2.30;1.83;;;24.20;26.90;;;;;;5011081;28;20482;-57
2024/03/25 12:44:14;;;;;;;2.13;1.87;;;24.20;28.40;;;;;;5006976;28;20453;-59
2024/03/25 12:46:39;;;;;;;9.47;1.80;;;23.50;26.90;;;;;;5005246;28;20245;-56
2024/03/25 12:49:06;;;;;;;1.97;1.53;;;22.90;27.00;;;;;;5003939;28;20861;-58
2024/03/25 12:51:32;;;;;;;2.10;1.60;;;23.10;28.70;;;;;;5007607;28;20728;-59
2024/03/25 12:53:58;;;;;;;3.20;2.40;;;23.50;28.80;;;;;;5005944;28;20453;-58